Αρχική σελίδα
METAR-TAF:

METAR-TAF

Αεροδρόμια :

Πόλη του Κουβέιτ, Κουβέιτ

γεωγραφικό πλάτος: 29-13N, γεωγραφικό μήκος: 047-59E, υψόμετρο: 55 μ

Παρών καιρός

Η αναφορά έγινε 12 λεπτά πριν, στις 03:00 UTC
Άνεμος 14 kt από Β/BΔ
Θερμοκρασία 34°C
Υγρασία 25%
Πίεση 1004 hPa
Ορατότητα 10 χλμ και άνω
Δεν υπάρχουν νέφη με βάση κάτω από τα 1500 μ. και δεν υπάρχουν νέφη σωρειτομελανίτες.

METAR: OKBK 200300Z 34014KT CAVOK 34/11 Q1004 NOSIG

Χρόνος: 06:12 (03:12 UTC)

Πρόγνωση Καιρού

Η αναφορά έγινε 4 ώρες και 27 λεπτά πριν, στις 22:45 UTC
Η πρόγνωση ισχύει από τις 20 στις 00 UTC έως τις 21 στις 06 UTC
Άνεμος 12 kt από Β με ριπές μέχρι 22 kt
Ορατότητα: 7000 μ
Καθαρός ουρανός
Προσωρινά
από 20 στις 06 UTC έως τις 20 στις 15 UTC
Ορατότητα: 2000 μ
φυσώντας σκόνη

TAF: OKBK 192245Z 2000/2106 35012G22KT 7000 SKC TEMPO 2006/2015 2000 BLDU

Μετεωρολογικές αναφορές και προγνώσεις για περισσότερα από 4000 αεροδρόμια (δελτία METAR και TAF).

Οι διαθέσιμοι σταθμοί απεικονίζονται στο χάρτη με κίτρινες και κόκκινες κουκκίδες.

Μετακινήστε το ποντίκι πάνω από τις κουκκίδες για να δείτε το όνομα του σταθμού.

Στη συνέχεια, κάντε κλικ για να δείτε τις μετεωρολογικές αναφορές και τις προγνώσεις καιρού.

Για να αλλάξετε το χάρτη: κάντε κλικ στα πράσινα κουμπιά με τον μαύρο σταυρό για να ζουμάρετε, στο πράσινο κουμπί με την παύλα για να αφαιρέσετε το ζουμ ή στα πράσινα βέλη για να αντιπαραβάλλετε χάρτες.


METAR-TAF: